Time;durP1;ratioP1;P1;durP2;ratioP2;P2;SDS_P1;SDS_P2;PMS_P1;PMS_P2;Temp;Humidity;BMP_temperature;BMP_pressure;BME280_temperature;BME280_humidity;BME280_pressure;Samples;Min_cycle;Max_cycle;Signal;HPM_P1;HPM_P2
2023/08/20 00:01:44;;;;;;;614.35;563.15;;;;;;;;;;5011482;28;20462;-59
2023/08/20 00:04:09;;;;;;;631.27;578.43;;;;;;;;;;5008685;28;20024;-58
2023/08/20 00:06:34;;;;;;;641.60;589.72;;;;;;;;;;5011742;28;20543;-57
2023/08/20 00:09:00;;;;;;;614.42;563.97;;;;;;;;;;5011267;28;20500;-56
2023/08/20 00:11:25;;;;;;;633.50;582.03;;;;;;;;;;5010319;28;20485;-58
2023/08/20 00:13:50;;;;;;;;;;;;;;;;;;5013856;28;20013;-56
2023/08/20 00:16:15;;;;;;;660.60;607.38;;;;;;;;;;5017821;28;20054;-58
2023/08/20 00:18:41;;;;;;;637.87;585.77;;;;;;;;;;5015741;28;20045;-57
2023/08/20 00:21:06;;;;;;;647.33;595.13;;;;;;;;;;5010360;28;20484;-57
2023/08/20 00:23:31;;;;;;;620.40;569.17;;;;;;;;;;5021168;28;20021;-58
2023/08/20 00:25:57;;;;;;;646.17;595.58;;;;;;;;;;5019935;28;20025;-58
2023/08/20 00:28:22;;;;;;;621.13;571.13;;;;;;;;;;5016923;28;20112;-56
2023/08/20 00:30:48;;;;;;;700.73;645.07;;;;;;;;;;5007092;28;20460;-57
2023/08/20 00:33:14;;;;;;;639.38;585.47;;;;;;;;;;5012811;28;20034;-57
2023/08/20 00:35:39;;;;;;;635.10;584.07;;;;;;;;;;5018695;28;20068;-56
2023/08/20 00:38:04;;;;;;;615.53;565.78;;;;;;;;;;5019504;28;20467;-57
2023/08/20 00:40:29;;;;;;;;;;;;;;;;;;5016661;28;20026;-57
2023/08/20 00:42:54;;;;;;;567.38;522.42;;;;;;;;;;5016734;28;19916;-55
2023/08/20 00:45:20;;;;;;;589.33;541.83;;;;;;;;;;5017236;28;20048;-57
2023/08/20 00:47:45;;;;;;;;;;;;;;;;;;5017141;28;20105;-55
2023/08/20 00:50:11;;;;;;;463.93;427.10;;;;;;;;;;5020325;28;19913;-56
2023/08/20 00:52:36;;;;;;;;;;;;;;;;;;5016867;28;20099;-57
2023/08/20 00:55:07;;;;;;;580.80;535.35;;;;;;;;;;5021811;28;19999;-56
2023/08/20 00:57:32;;;;;;;521.67;479.38;;;;;;;;;;5024772;28;20036;-56
2023/08/20 00:59:57;;;;;;;600.97;552.73;;;;;;;;;;5031478;28;20112;-55
2023/08/20 01:02:22;;;;;;;;;;;;;;;;;;5017384;28;20029;-56
2023/08/20 01:04:48;;;;;;;490.50;450.07;;;;;;;;;;5017205;28;19909;-57
2023/08/20 01:07:27;;;;;;;605.78;556.45;;;;;;;;;;5017341;28;20809;-56
2023/08/20 01:10:10;;;;;;;655.15;603.05;;;;;;;;;;5017048;28;20392;-57
2023/08/20 01:12:35;;;;;;;;;;;;;;;;;;5024383;28;20484;-56
2023/08/20 01:15:00;;;;;;;530.13;488.33;;;;;;;;;;5016619;28;20375;-59
2023/08/20 01:17:26;;;;;;;537.67;493.50;;;;;;;;;;5018425;28;20029;-56
2023/08/20 01:19:51;;;;;;;565.17;519.50;;;;;;;;;;5017659;28;20025;-56
2023/08/20 01:22:35;;;;;;;625.65;575.85;;;;;;;;;;5016283;28;20025;-58
2023/08/20 01:25:19;;;;;;;606.13;557.20;;;;;;;;;;5005238;28;20022;-58
2023/08/20 01:27:48;;;;;;;605.35;556.33;;;;;;;;;;5019099;28;20029;-56
2023/08/20 01:30:14;;;;;;;602.72;553.85;;;;;;;;;;5020622;28;20017;-60
2023/08/20 01:32:42;;;;;;;623.17;575.03;;;;;;;;;;5019860;28;20484;-56
2023/08/20 01:35:13;;;;;;;583.97;536.45;;;;;;;;;;5012919;28;20388;-56
2023/08/20 01:37:39;;;;;;;598.47;549.60;;;;;;;;;;5012011;28;20054;-58
2023/08/20 01:40:05;;;;;;;635.13;583.92;;;;;;;;;;5014026;28;20049;-56
2023/08/20 01:42:31;;;;;;;589.92;542.75;;;;;;;;;;5013750;28;20034;-57
2023/08/20 01:44:56;;;;;;;619.37;567.97;;;;;;;;;;5004864;28;20496;-58
2023/08/20 01:47:21;;;;;;;626.73;577.30;;;;;;;;;;5001482;28;20026;-56
2023/08/20 01:49:46;;;;;;;;;;;;;;;;;;5012575;28;20026;-58
2023/08/20 01:52:12;;;;;;;548.55;505.63;;;;;;;;;;5013613;28;19968;-60
2023/08/20 01:54:37;;;;;;;612.72;564.47;;;;;;;;;;5014643;28;20022;-60
2023/08/20 01:57:02;;;;;;;620.37;572.03;;;;;;;;;;5008383;28;20021;-55
2023/08/20 01:59:27;;;;;;;601.15;553.30;;;;;;;;;;5012830;28;20033;-57
2023/08/20 02:01:53;;;;;;;604.92;556.08;;;;;;;;;;5013506;28;20017;-62
2023/08/20 02:04:18;;;;;;;609.33;559.90;;;;;;;;;;5013011;28;20036;-59
2023/08/20 02:06:43;;;;;;;611.55;562.38;;;;;;;;;;5009540;28;20087;-57
2023/08/20 02:09:08;;;;;;;618.20;567.27;;;;;;;;;;5013004;28;20014;-56
2023/08/20 02:11:35;;;;;;;619.37;569.10;;;;;;;;;;5011205;28;20038;-59
2023/08/20 02:14:01;;;;;;;588.28;541.00;;;;;;;;;;5015540;28;20115;-56
2023/08/20 02:16:26;;;;;;;624.85;575.10;;;;;;;;;;5012320;28;20057;-58
2023/08/20 02:18:51;;;;;;;610.47;561.30;;;;;;;;;;5013806;28;20072;-59
2023/08/20 02:21:16;;;;;;;;;;;;;;;;;;5017577;28;20525;-57
2023/08/20 02:23:41;;;;;;;550.22;506.38;;;;;;;;;;5012115;28;19913;-59
2023/08/20 02:26:06;;;;;;;;;;;;;;;;;;5022566;28;20544;-58
2023/08/20 02:28:32;;;;;;;572.63;527.63;;;;;;;;;;5011349;28;19917;-58
2023/08/20 02:30:57;;;;;;;550.73;505.80;;;;;;;;;;5019803;28;20021;-56
2023/08/20 02:33:22;;;;;;;640.25;588.67;;;;;;;;;;5012182;28;20049;-56
2023/08/20 02:35:47;;;;;;;610.63;561.17;;;;;;;;;;5008146;28;20022;-58
2023/08/20 02:38:14;;;;;;;616.90;567.40;;;;;;;;;;5001676;28;20406;-57
2023/08/20 02:40:40;;;;;;;623.20;574.22;;;;;;;;;;5009943;28;20018;-57
2023/08/20 02:43:05;;;;;;;607.35;557.75;;;;;;;;;;5001995;28;20029;-57
2023/08/20 02:45:31;;;;;;;636.87;586.63;;;;;;;;;;5009211;28;20026;-58
2023/08/20 02:47:56;;;;;;;;;;;;;;;;;;5019394;28;20385;-57
2023/08/20 02:50:21;;;;;;;508.00;467.58;;;;;;;;;;5011549;28;20284;-56
2023/08/20 02:52:46;;;;;;;582.53;534.83;;;;;;;;;;5011875;28;20034;-57
2023/08/20 02:55:11;;;;;;;609.80;559.63;;;;;;;;;;5010748;28;20950;-57
2023/08/20 02:57:37;;;;;;;573.30;526.53;;;;;;;;;;5012846;28;20045;-57
2023/08/20 03:00:02;;;;;;;615.27;565.90;;;;;;;;;;5008924;28;20380;-58
2023/08/20 03:02:27;;;;;;;625.08;574.95;;;;;;;;;;5001689;28;20022;-58
2023/08/20 03:04:53;;;;;;;591.47;544.37;;;;;;;;;;5008829;28;20080;-59
2023/08/20 03:07:18;;;;;;;611.65;563.67;;;;;;;;;;5004373;28;20032;-59
2023/08/20 03:09:43;;;;;;;644.63;594.47;;;;;;;;;;5007662;28;20083;-58
2023/08/20 03:12:08;;;;;;;596.80;547.47;;;;;;;;;;5009295;28;20206;-58
2023/08/20 03:14:33;;;;;;;624.17;576.35;;;;;;;;;;5001428;28;20109;-59
2023/08/20 03:16:58;;;;;;;584.67;534.07;;;;;;;;;;5001659;28;20014;-59
2023/08/20 03:19:23;;;;;;;;;;;;;;;;;;5004165;28;20113;-58
2023/08/20 03:21:49;;;;;;;577.40;533.05;;;;;;;;;;5001746;28;20403;-58
2023/08/20 03:24:14;;;;;;;556.40;509.53;;;;;;;;;;5002800;28;20056;-59
2023/08/20 03:26:39;;;;;;;599.20;550.83;;;;;;;;;;5009428;28;20025;-58
2023/08/20 03:29:04;;;;;;;;;;;;;;;;;;5004575;28;20029;-59
2023/08/20 03:31:29;;;;;;;522.33;481.70;;;;;;;;;;5007232;28;19917;-57
2023/08/20 03:33:54;;;;;;;581.90;535.40;;;;;;;;;;5006423;28;20034;-59
2023/08/20 03:36:19;;;;;;;;;;;;;;;;;;5016105;28;20030;-57
2023/08/20 03:38:45;;;;;;;578.95;533.50;;;;;;;;;;5010813;28;19909;-57
2023/08/20 03:41:10;;;;;;;606.33;557.40;;;;;;;;;;5014307;28;20019;-57
2023/08/20 03:43:35;;;;;;;;;;;;;;;;;;5014000;28;20101;-58
2023/08/20 03:46:01;;;;;;;563.67;519.38;;;;;;;;;;5011175;28;19913;-56
2023/08/20 03:48:26;;;;;;;591.42;544.55;;;;;;;;;;5008802;28;20449;-58
2023/08/20 03:50:51;;;;;;;601.40;552.07;;;;;;;;;;5009880;28;20038;-57
2023/08/20 03:53:16;;;;;;;630.87;581.50;;;;;;;;;;5010619;28;20061;-56
2023/08/20 03:55:41;;;;;;;;;;;;;;;;;;5010442;28;20489;-57
2023/08/20 03:58:07;;;;;;;544.75;502.23;;;;;;;;;;5013756;28;20360;-57
2023/08/20 04:00:33;;;;;;;623.55;574.50;;;;;;;;;;5017814;28;20028;-57
2023/08/20 04:02:59;;;;;;;596.50;546.97;;;;;;;;;;5010807;28;20022;-56
2023/08/20 04:05:24;;;;;;;626.50;576.97;;;;;;;;;;5016875;28;20201;-58
2023/08/20 04:07:49;;;;;;;;;;;;;;;;;;5010824;28;20388;-59
2023/08/20 04:10:14;;;;;;;522.53;481.40;;;;;;;;;;5010727;28;19962;-58
2023/08/20 04:12:39;;;;;;;618.60;569.00;;;;;;;;;;5011008;28;20029;-58
2023/08/20 04:15:05;;;;;;;621.13;570.17;;;;;;;;;;5011214;28;20025;-57
2023/08/20 04:17:30;;;;;;;634.28;581.22;;;;;;;;;;5011346;28;20376;-56
2023/08/20 04:19:55;;;;;;;555.03;509.07;;;;;;;;;;5008149;28;20663;-56
2023/08/20 04:22:20;;;;;;;470.53;430.23;;;;;;;;;;5005725;28;20194;-57
2023/08/20 04:24:45;;;;;;;526.10;482.60;;;;;;;;;;5009550;28;20396;-58
2023/08/20 04:27:10;;;;;;;490.83;448.05;;;;;;;;;;5008834;28;20024;-56
2023/08/20 04:29:35;;;;;;;552.77;504.83;;;;;;;;;;5014804;28;20033;-58
2023/08/20 04:32:01;;;;;;;522.90;477.60;;;;;;;;;;5011031;28;20030;-57
2023/08/20 04:34:26;;;;;;;314.50;289.45;;;;;;;;;;5017381;28;20452;-58
2023/08/20 04:36:51;;;;;;;564.43;517.70;;;;;;;;;;5016476;28;20018;-56
2023/08/20 04:39:17;;;;;;;537.37;492.10;;;;;;;;;;5008361;28;20127;-57
2023/08/20 04:41:42;;;;;;;;;;;;;;;;;;5010972;28;20464;-57
2023/08/20 04:44:08;;;;;;;420.27;386.42;;;;;;;;;;5013287;28;19905;-58
2023/08/20 04:46:33;;;;;;;508.40;464.77;;;;;;;;;;5010644;28;20080;-61
2023/08/20 04:48:58;;;;;;;540.97;495.70;;;;;;;;;;5010401;28;20109;-61
2023/08/20 04:51:23;;;;;;;491.03;449.40;;;;;;;;;;5011314;28;20034;-57
2023/08/20 04:53:48;;;;;;;558.50;510.55;;;;;;;;;;5006487;28;20046;-58
2023/08/20 04:56:13;;;;;;;571.27;523.07;;;;;;;;;;5009909;28;20052;-57
2023/08/20 04:58:39;;;;;;;586.00;535.43;;;;;;;;;;5009875;28;20026;-59
2023/08/20 05:01:05;;;;;;;528.90;485.13;;;;;;;;;;5009250;28;20045;-59
2023/08/20 05:03:30;;;;;;;522.38;477.58;;;;;;;;;;5006471;28;20072;-57
2023/08/20 05:05:55;;;;;;;601.60;550.90;;;;;;;;;;5012078;28;20100;-57
2023/08/20 05:08:21;;;;;;;583.60;533.80;;;;;;;;;;5006424;28;21549;-58
2023/08/20 05:10:46;;;;;;;545.03;498.57;;;;;;;;;;5011029;28;20018;-59
2023/08/20 05:13:11;;;;;;;557.85;510.40;;;;;;;;;;5008738;28;20500;-57
2023/08/20 05:15:36;;;;;;;564.87;517.63;;;;;;;;;;5008148;28;20032;-59
2023/08/20 05:18:01;;;;;;;514.30;468.03;;;;;;;;;;5012827;28;20061;-57
2023/08/20 05:20:27;;;;;;;514.90;470.97;;;;;;;;;;5011748;28;20372;-58
2023/08/20 05:22:52;;;;;;;492.57;449.33;;;;;;;;;;5009998;28;20053;-57
2023/08/20 05:25:17;;;;;;;455.67;418.23;;;;;;;;;;5007495;28;20510;-58
2023/08/20 05:27:42;;;;;;;516.23;472.37;;;;;;;;;;5010505;28;20569;-60
2023/08/20 05:30:08;;;;;;;;;;;;;;;;;;5013645;28;20413;-57
2023/08/20 05:32:33;;;;;;;391.17;360.52;;;;;;;;;;5008160;28;19925;-57
2023/08/20 05:34:58;;;;;;;422.07;388.00;;;;;;;;;;5009666;28;20080;-60
2023/08/20 05:37:23;;;;;;;463.52;425.63;;;;;;;;;;5012619;28;20393;-60
2023/08/20 05:39:48;;;;;;;;;;;;;;;;;;5012020;28;20026;-60
2023/08/20 05:42:14;;;;;;;435.77;401.05;;;;;;;;;;5010679;28;20071;-57
2023/08/20 05:44:39;;;;;;;483.17;441.17;;;;;;;;;;5012175;28;20030;-57
2023/08/20 05:47:05;;;;;;;;;;;;;;;;;;5013124;28;20424;-56
2023/08/20 05:49:30;;;;;;;517.92;475.10;;;;;;;;;;5007483;28;19909;-57
2023/08/20 05:51:55;;;;;;;;;;;;;;;;;;4994317;28;20026;-57
2023/08/20 05:54:20;;;;;;;479.02;437.92;;;;;;;;;;5002995;28;19909;-61
2023/08/20 05:56:45;;;;;;;460.47;421.93;;;;;;;;;;5010339;28;20108;-57
2023/08/20 05:59:11;;;;;;;;;;;;;;;;;;5010100;28;20033;-61
2023/08/20 06:01:36;;;;;;;536.38;490.10;;;;;;;;;;5005111;28;19916;-58
2023/08/20 06:04:01;;;;;;;565.40;518.17;;;;;;;;;;5010938;28;20073;-58
2023/08/20 06:06:26;;;;;;;;;;;;;;;;;;5011800;28;20362;-57
2023/08/20 06:08:52;;;;;;;580.28;530.67;;;;;;;;;;5010448;28;19913;-57
2023/08/20 06:11:17;;;;;;;;;;;;;;;;;;5013679;28;20413;-60
2023/08/20 06:13:42;;;;;;;528.30;483.63;;;;;;;;;;5012358;28;19917;-57
2023/08/20 06:16:07;;;;;;;;;;;;;;;;;;5012502;28;20050;-59
2023/08/20 06:18:32;;;;;;;572.83;523.50;;;;;;;;;;5011365;28;19913;-56
2023/08/20 06:20:57;;;;;;;;;;;;;;;;;;5009647;28;20030;-58
2023/08/20 06:23:22;;;;;;;560.95;512.53;;;;;;;;;;5006579;28;19910;-56
2023/08/20 06:25:49;;;;;;;604.90;553.43;;;;;;;;;;5008756;28;20041;-57
2023/08/20 06:28:15;;;;;;;599.00;548.38;;;;;;;;;;5003872;28;20053;-56
2023/08/20 06:30:40;;;;;;;;;;;;;;;;;;5012140;28;20018;-57
2023/08/20 06:33:05;;;;;;;491.13;448.15;;;;;;;;;;5002837;28;19917;-57
2023/08/20 06:35:30;;;;;;;;;;;;;;;;;;5002335;28;20029;-57
2023/08/20 06:37:56;;;;;;;570.93;522.43;;;;;;;;;;5009683;28;19916;-57
2023/08/20 06:40:21;;;;;;;;;;;;;;;;;;5009979;28;20549;-57
2023/08/20 06:42:46;;;;;;;578.72;528.70;;;;;;;;;;5009180;28;19909;-58
2023/08/20 06:45:11;;;;;;;584.07;534.37;;;;;;;;;;5006384;28;20044;-57
2023/08/20 06:47:36;;;;;;;;;;;;;;;;;;5008097;28;20026;-57
2023/08/20 06:50:02;;;;;;;544.83;499.45;;;;;;;;;;5011371;28;19920;-59
2023/08/20 06:52:27;;;;;;;554.90;506.23;;;;;;;;;;5007993;28;20049;-56
2023/08/20 06:54:52;;;;;;;556.00;509.40;;;;;;;;;;5007157;28;20024;-57
2023/08/20 06:57:18;;;;;;;605.63;552.97;;;;;;;;;;5010598;28;20087;-58
2023/08/20 06:59:43;;;;;;;;;;;;;;;;;;5012153;28;20089;-56
2023/08/20 07:02:08;;;;;;;566.55;518.30;;;;;;;;;;5008582;28;20435;-58
2023/08/20 07:04:33;;;;;;;;;;;;;;;;;;5009082;28;20393;-57
2023/08/20 07:06:59;;;;;;;550.75;504.35;;;;;;;;;;5006386;28;19913;-57
2023/08/20 07:09:24;;;;;;;529.40;484.87;;;;;;;;;;5010719;28;20029;-58
2023/08/20 07:11:49;;;;;;;;;;;;;;;;;;5011483;28;20046;-59
2023/08/20 07:14:14;;;;;;;581.53;528.35;;;;;;;;;;5017450;28;19913;-62
2023/08/20 07:16:39;;;;;;;;;;;;;;;;;;5009101;28;20411;-57
2023/08/20 07:19:04;;;;;;;435.35;399.30;;;;;;;;;;4998992;28;19913;-59
2023/08/20 07:21:29;;;;;;;510.90;471.00;;;;;;;;;;5002782;28;20022;-58
2023/08/20 07:23:55;;;;;;;;;;;;;;;;;;5006114;28;20026;-58
2023/08/20 07:26:20;;;;;;;488.57;448.53;;;;;;;;;;5009560;28;20020;-57
2023/08/20 07:28:57;;;;;;;543.17;497.45;;;;;;;;;;5011220;28;20644;-58
2023/08/20 07:31:22;;;;;;;;;;;;;;;;;;5011821;28;20044;-57
2023/08/20 07:33:48;;;;;;;531.50;487.30;;;;;;;;;;5010311;28;19909;-57
2023/08/20 07:36:14;;;;;;;610.30;561.47;;;;;;;;;;5007900;28;20057;-63
2023/08/20 07:38:41;;;;;;;;;;;;;;;;;;5007026;28;20485;-58
2023/08/20 07:41:06;;;;;;;576.33;526.95;;;;;;;;;;5006471;28;20511;-57
2023/08/20 07:43:31;;;;;;;;;;;;;;;;;;5010063;28;20532;-58
2023/08/20 07:45:56;;;;;;;566.70;520.85;;;;;;;;;;5006525;28;19909;-58
2023/08/20 07:48:21;;;;;;;;;;;;;;;;;;5008250;28;20080;-57
2023/08/20 07:50:47;;;;;;;540.05;494.88;;;;;;;;;;5007617;28;19917;-58
2023/08/20 07:53:12;;;;;;;;;;;;;;;;;;5000539;28;20030;-57
2023/08/20 07:55:37;;;;;;;535.75;491.92;;;;;;;;;;5002788;28;19906;-58
2023/08/20 07:58:02;;;;;;;;;;;;;;;;;;5010821;28;20481;-57
2023/08/20 08:00:27;;;;;;;580.70;533.40;;;;;;;;;;5010096;28;20369;-58
2023/08/20 08:02:52;;;;;;;;;;;;;;;;;;5003407;28;20105;-58
2023/08/20 08:05:17;;;;;;;590.72;541.55;;;;;;;;;;5011266;28;20316;-57
2023/08/20 08:07:43;;;;;;;;;;;;;;;;;;5011597;28;20022;-58
2023/08/20 08:10:08;;;;;;;622.60;569.33;;;;;;;;;;5009368;28;20285;-57
2023/08/20 08:12:33;;;;;;;605.83;553.00;;;;;;;;;;5003226;28;20034;-58
2023/08/20 08:14:58;;;;;;;664.83;603.90;;;;;;;;;;5005648;28;20467;-59
2023/08/20 08:17:23;;;;;;;653.97;599.03;;;;;;;;;;4990782;28;20064;-58
2023/08/20 08:19:49;;;;;;;686.03;625.03;;;;;;;;;;4991463;28;20038;-58
2023/08/20 08:22:14;;;;;;;676.40;616.10;;;;;;;;;;4991274;28;20026;-58
2023/08/20 08:24:41;;;;;;;646.58;587.78;;;;;;;;;;5000138;28;20490;-58
2023/08/20 08:27:07;;;;;;;723.53;653.75;;;;;;;;;;5001203;28;20079;-58
2023/08/20 08:29:32;;;;;;;676.17;615.27;;;;;;;;;;5001180;28;20478;-58
2023/08/20 08:31:57;;;;;;;;;;;;;;;;;;5011465;28;20041;-58
2023/08/20 08:34:22;;;;;;;591.15;539.30;;;;;;;;;;5008427;28;20018;-58
2023/08/20 08:36:48;;;;;;;641.97;586.73;;;;;;;;;;5005889;28;20036;-57
2023/08/20 08:39:13;;;;;;;606.65;554.72;;;;;;;;;;5014955;28;20044;-58
2023/08/20 08:41:39;;;;;;;;;;;;;;;;;;5015160;28;20018;-57
2023/08/20 08:44:05;;;;;;;625.75;570.33;;;;;;;;;;5011438;28;19909;-57
2023/08/20 08:46:31;;;;;;;668.53;611.80;;;;;;;;;;5004041;28;20030;-57
2023/08/20 08:48:56;;;;;;;;;;;;;;;;;;5003416;28;20010;-57
2023/08/20 08:51:21;;;;;;;662.30;601.70;;;;;;;;;;5005117;28;20598;-57
2023/08/20 08:53:46;;;;;;;;;;;;;;;;;;5006595;28;20058;-58
2023/08/20 08:56:12;;;;;;;533.80;488.02;;;;;;;;;;5005948;28;19944;-59
2023/08/20 08:58:37;;;;;;;;;;;;;;;;;;5006410;28;20402;-56
2023/08/20 09:01:03;;;;;;;619.38;565.17;;;;;;;;;;5014292;28;19992;-57
2023/08/20 09:03:28;;;;;;;641.17;583.33;;;;;;;;;;5014503;28;20014;-57
2023/08/20 09:06:00;;;;;;;588.80;540.53;;;;;;;;;;5014716;28;20026;-57
2023/08/20 09:08:28;;;;;;;665.13;605.90;;;;;;;;;;5012875;28;20026;-57
2023/08/20 09:10:54;;;;;;;685.17;623.40;;;;;;;;;;5004633;28;20014;-56
2023/08/20 09:13:24;;;;;;;681.75;617.85;;;;;;;;;;5007113;28;20533;-57
2023/08/20 09:15:51;;;;;;;725.05;655.97;;;;;;;;;;5013736;28;20018;-58
2023/08/20 09:18:16;;;;;;;668.65;609.22;;;;;;;;;;5013602;28;20367;-57
2023/08/20 09:20:41;;;;;;;703.23;635.40;;;;;;;;;;5013126;28;20028;-57
2023/08/20 09:23:13;;;;;;;673.27;616.10;;;;;;;;;;5013776;28;20032;-57
2023/08/20 09:25:38;;;;;;;;;;;;;;;;;;5009485;28;20107;-58
2023/08/20 09:28:04;;;;;;;702.05;630.35;;;;;;;;;;5005968;28;19948;-57
2023/08/20 09:30:29;;;;;;;;;;;;;;;;;;5005674;28;20076;-58
2023/08/20 09:33:04;;;;;;;450.13;409.52;;;;;;;;;;5012963;28;20462;-57
2023/08/20 09:35:29;;;;;;;422.42;384.13;;;;;;;;;;5012152;28;20018;-57
2023/08/20 09:37:54;;;;;;;;;;;;;;;;;;5003791;28;20018;-58
2023/08/20 09:40:19;;;;;;;483.73;443.38;;;;;;;;;;5006701;28;19968;-57
2023/08/20 09:42:44;;;;;;;;;;;;;;;;;;5012040;28;20106;-58
2023/08/20 09:45:10;;;;;;;546.05;502.55;;;;;;;;;;5012522;28;19940;-58
2023/08/20 09:47:35;;;;;;;;;;;;;;;;;;5013310;28;20054;-58
2023/08/20 09:50:02;;;;;;;494.17;455.70;;;;;;;;;;5012530;28;19909;-58
2023/08/20 09:52:43;;;;;;;573.95;527.13;;;;;;;;;;5004245;28;20489;-57
2023/08/20 09:55:10;;;;;;;582.78;537.55;;;;;;;;;;5003828;28;20022;-57
2023/08/20 09:57:40;;;;;;;610.58;560.60;;;;;;;;;;5003397;28;20025;-57
2023/08/20 10:00:05;;;;;;;585.83;540.58;;;;;;;;;;4994501;28;20023;-57
2023/08/20 10:02:30;;;;;;;;;;;;;;;;;;4994571;28;20029;-60
2023/08/20 10:04:56;;;;;;;513.75;471.25;;;;;;;;;;4994022;28;19928;-56
2023/08/20 10:07:21;;;;;;;;;;;;;;;;;;4993426;28;20041;-57
2023/08/20 10:09:50;;;;;;;532.97;489.23;;;;;;;;;;4993299;28;20414;-57
2023/08/20 10:12:15;;;;;;;568.38;522.00;;;;;;;;;;4998217;28;20030;-57
2023/08/20 10:14:40;;;;;;;;;;;;;;;;;;5003041;28;20604;-57
2023/08/20 10:17:07;;;;;;;572.88;523.75;;;;;;;;;;5005744;28;19913;-57
2023/08/20 10:19:32;;;;;;;587.15;539.92;;;;;;;;;;5012902;28;20109;-58
2023/08/20 10:21:57;;;;;;;;;;;;;;;;;;5009960;28;20149;-57
2023/08/20 10:24:23;;;;;;;601.38;550.30;;;;;;;;;;5004342;28;20357;-57
2023/08/20 10:27:06;;;;;;;522.92;479.90;;;;;;;;;;4998853;28;20056;-56
2023/08/20 10:29:38;;;;;;;560.67;517.60;;;;;;;;;;5003657;28;20057;-57
2023/08/20 10:32:12;;;;;;;570.53;519.75;;;;;;;;;;5004293;28;20018;-57
2023/08/20 10:34:39;;;;;;;608.83;557.40;;;;;;;;;;5012698;28;20529;-57
2023/08/20 10:37:12;;;;;;;571.53;523.47;;;;;;;;;;5006390;28;20465;-57
2023/08/20 10:39:37;;;;;;;518.45;475.02;;;;;;;;;;5009993;28;20061;-57
2023/08/20 10:42:14;;;;;;;497.37;455.87;;;;;;;;;;5005890;28;20131;-57
2023/08/20 10:45:08;;;;;;;494.63;453.05;;;;;;;;;;5010107;28;20990;-57
2023/08/20 10:47:36;;;;;;;557.38;510.63;;;;;;;;;;5001413;28;20060;-56
2023/08/20 10:50:02;;;;;;;505.88;466.00;;;;;;;;;;4992490;28;20030;-57
2023/08/20 10:52:27;;;;;;;508.65;467.27;;;;;;;;;;5010994;28;20033;-57
2023/08/20 10:54:52;;;;;;;526.03;483.43;;;;;;;;;;5004028;28;20049;-58
2023/08/20 10:57:21;;;;;;;527.95;486.50;;;;;;;;;;5009251;28;20476;-57
2023/08/20 10:59:55;;;;;;;510.95;468.63;;;;;;;;;;5003027;28;20080;-57
2023/08/20 11:02:21;;;;;;;495.63;454.33;;;;;;;;;;5011568;28;20179;-58
2023/08/20 11:04:46;;;;;;;568.90;518.70;;;;;;;;;;5006002;28;20104;-58
2023/08/20 11:07:17;;;;;;;507.77;464.20;;;;;;;;;;5002997;28;20026;-57
2023/08/20 11:09:42;;;;;;;508.00;465.98;;;;;;;;;;5011766;28;20432;-58
2023/08/20 11:12:07;;;;;;;604.33;555.67;;;;;;;;;;5010129;28;20026;-57
2023/08/20 11:14:32;;;;;;;533.40;489.90;;;;;;;;;;5007037;28;20033;-58
2023/08/20 11:16:58;;;;;;;531.83;488.23;;;;;;;;;;5003630;28;20026;-57
2023/08/20 11:19:23;;;;;;;597.20;547.73;;;;;;;;;;5010908;28;20033;-57
2023/08/20 11:21:49;;;;;;;531.13;487.48;;;;;;;;;;5003345;28;20022;-57
2023/08/20 11:24:14;;;;;;;608.97;559.58;;;;;;;;;;5011435;28;20053;-57
2023/08/20 11:26:40;;;;;;;533.50;488.33;;;;;;;;;;5008653;28;20420;-57
2023/08/20 11:29:05;;;;;;;549.35;499.30;;;;;;;;;;5004628;28;20108;-57
2023/08/20 11:31:31;;;;;;;564.63;514.03;;;;;;;;;;5010004;28;20018;-58
2023/08/20 11:33:56;;;;;;;532.10;485.90;;;;;;;;;;5000864;28;20050;-57
2023/08/20 11:36:21;;;;;;;530.80;484.95;;;;;;;;;;5004829;28;20413;-56
2023/08/20 11:38:53;;;;;;;568.97;519.00;;;;;;;;;;5006515;28;20145;-57
2023/08/20 11:41:18;;;;;;;;;;;;;;;;;;5008189;28;20219;-57
2023/08/20 11:43:43;;;;;;;485.02;445.88;;;;;;;;;;5006425;28;19989;-56
2023/08/20 11:46:12;;;;;;;555.30;508.50;;;;;;;;;;5005225;28;20021;-57
2023/08/20 11:48:38;;;;;;;529.85;485.30;;;;;;;;;;5000489;28;20030;-57
2023/08/20 11:51:03;;;;;;;492.70;453.07;;;;;;;;;;5000509;28;20116;-57
2023/08/20 11:53:29;;;;;;;492.17;452.67;;;;;;;;;;5004731;28;20054;-56
2023/08/20 11:55:54;;;;;;;573.17;527.63;;;;;;;;;;5001573;28;20022;-57
2023/08/20 11:58:20;;;;;;;559.30;512.43;;;;;;;;;;5000268;28;20783;-56
2023/08/20 12:00:48;;;;;;;534.58;488.08;;;;;;;;;;5004216;28;20033;-56
2023/08/20 12:03:13;;;;;;;523.03;482.42;;;;;;;;;;5007654;28;20510;-57
2023/08/20 12:05:40;;;;;;;503.97;462.57;;;;;;;;;;5004814;28;20033;-57
2023/08/20 12:08:06;;;;;;;579.22;529.58;;;;;;;;;;5005581;28;20105;-57
2023/08/20 12:10:32;;;;;;;555.57;512.00;;;;;;;;;;5004265;28;20121;-57
2023/08/20 12:12:57;;;;;;;546.65;502.35;;;;;;;;;;5006071;28;20762;-57
2023/08/20 12:15:24;;;;;;;520.78;480.45;;;;;;;;;;5006430;28;20022;-59
2023/08/20 12:18:04;;;;;;;534.88;489.58;;;;;;;;;;5003316;28;20025;-58
2023/08/20 12:20:30;;;;;;;528.35;484.73;;;;;;;;;;5005462;28;20511;-59
2023/08/20 12:22:58;;;;;;;504.98;465.73;;;;;;;;;;5005465;28;20026;-58
2023/08/20 12:25:23;;;;;;;572.08;525.33;;;;;;;;;;5000841;28;20497;-57
2023/08/20 12:27:48;;;;;;;553.67;509.97;;;;;;;;;;4998118;28;20037;-59
2023/08/20 12:30:14;;;;;;;530.60;485.07;;;;;;;;;;5006058;28;20145;-57
2023/08/20 12:32:39;;;;;;;523.60;481.67;;;;;;;;;;5006804;28;20057;-57
2023/08/20 12:35:05;;;;;;;520.83;479.30;;;;;;;;;;5006928;28;20025;-58
2023/08/20 12:37:30;;;;;;;513.63;469.40;;;;;;;;;;5003875;28;20029;-58
2023/08/20 12:39:55;;;;;;;531.23;486.80;;;;;;;;;;5005392;28;20021;-57
2023/08/20 12:42:20;;;;;;;549.57;506.53;;;;;;;;;;5005588;28;20038;-57
2023/08/20 12:44:45;;;;;;;509.33;468.17;;;;;;;;;;5006454;28;20068;-56
2023/08/20 12:47:11;;;;;;;585.43;536.10;;;;;;;;;;5002486;28;20445;-57
2023/08/20 12:49:36;;;;;;;552.13;507.10;;;;;;;;;;5004394;28;20046;-57
2023/08/20 12:52:01;;;;;;;560.03;514.42;;;;;;;;;;5000230;28;20034;-57
2023/08/20 12:54:26;;;;;;;555.57;509.57;;;;;;;;;;5002486;28;20038;-56
2023/08/20 12:56:51;;;;;;;573.47;528.53;;;;;;;;;;5005823;28;20022;-56
2023/08/20 12:59:16;;;;;;;584.83;538.03;;;;;;;;;;4999329;28;20022;-58
2023/08/20 13:01:42;;;;;;;586.17;535.87;;;;;;;;;;4997545;28;20022;-57
2023/08/20 13:04:07;;;;;;;527.97;485.45;;;;;;;;;;5006642;28;20022;-57
2023/08/20 13:06:33;;;;;;;568.53;521.92;;;;;;;;;;5006360;28;20503;-56
2023/08/20 13:08:58;;;;;;;548.00;505.38;;;;;;;;;;5002778;28;20032;-58
2023/08/20 13:11:25;;;;;;;568.97;525.33;;;;;;;;;;5004520;28;20057;-58
2023/08/20 13:13:50;;;;;;;546.83;503.58;;;;;;;;;;5002524;28;21154;-58
2023/08/20 13:16:18;;;;;;;560.87;515.87;;;;;;;;;;5004989;28;20030;-57
2023/08/20 13:18:43;;;;;;;587.35;537.03;;;;;;;;;;5000694;28;20052;-58
2023/08/20 13:21:09;;;;;;;581.00;535.67;;;;;;;;;;5000329;28;20046;-58
2023/08/20 13:23:34;;;;;;;516.85;475.20;;;;;;;;;;5003091;28;20457;-57
2023/08/20 13:25:59;;;;;;;529.03;486.37;;;;;;;;;;5007647;28;20018;-58
2023/08/20 13:28:24;;;;;;;607.97;558.15;;;;;;;;;;5009353;28;20018;-57
2023/08/20 13:30:49;;;;;;;543.77;499.63;;;;;;;;;;5005823;28;20034;-57
2023/08/20 13:33:14;;;;;;;543.87;499.60;;;;;;;;;;5002859;28;20034;-58
2023/08/20 13:35:40;;;;;;;578.27;529.93;;;;;;;;;;5001800;28;20026;-57
2023/08/20 13:38:05;;;;;;;546.13;501.13;;;;;;;;;;5003186;28;20049;-56
2023/08/20 13:40:30;;;;;;;540.20;496.10;;;;;;;;;;4999022;28;20091;-57
2023/08/20 13:42:56;;;;;;;541.60;497.73;;;;;;;;;;5007769;28;20038;-57
2023/08/20 13:45:21;;;;;;;541.07;496.10;;;;;;;;;;5007568;28;20022;-57
2023/08/20 13:47:46;;;;;;;561.07;515.77;;;;;;;;;;5001038;28;20025;-57
2023/08/20 13:50:11;;;;;;;578.23;534.57;;;;;;;;;;5000185;28;20044;-58
2023/08/20 13:52:36;;;;;;;623.50;573.20;;;;;;;;;;5007542;28;21055;-56
2023/08/20 13:55:03;;;;;;;599.90;550.97;;;;;;;;;;5002708;28;20033;-59
2023/08/20 13:57:28;;;;;;;553.28;506.88;;;;;;;;;;5005631;28;20485;-62
2023/08/20 13:59:53;;;;;;;582.60;534.63;;;;;;;;;;5000047;28;20052;-61
2023/08/20 14:02:18;;;;;;;568.37;524.87;;;;;;;;;;5005834;28;20054;-62
2023/08/20 14:04:43;;;;;;;622.22;570.15;;;;;;;;;;5006256;28;20025;-61
2023/08/20 14:07:09;;;;;;;614.97;564.83;;;;;;;;;;5008780;28;20470;-61
2023/08/20 14:09:35;;;;;;;558.50;508.83;;;;;;;;;;5003815;28;20032;-61